CYIN

Bleibler Ranch

Bleibler Ranch, British Columbia, Canada
METAR CYIN 172100Z AUTO 11007KT 9SM CLR M02/M07 A3030 RMK SLP312
Observed Flight Rules
Nov-17 @ 21:00 UTC (37 minutes ago) Visual Flight Rules
Wind Visibility Clouds
110° at 7 knots 9 miles
  • Clear skies
Temperatures Readings
Current -2°C / 28°F
Dewpoint -7°C / 19°F
Humidity 69%
Altimeter 30.3" Hg
Pressure 1031.2 hPa
Elevation 1128
METAR CYIN 172100Z AUTO 11007KT 9SM CLR M02/M07 A3030 RMK SLP312
Observed Flight Rules
Nov-17 @ 21:00 UTC
(37 minutes ago)
VFR
Wind Visibility
110° at 7 knots 9 miles
Clouds
  • Clear skies
Temperature Dewpoint
-2°C / 28°F -7°C / 19°F
Humidity Altimeter Pressure
69% 30.3" Hg 1031.2 hPa